createdAt,value
2016-11-09T00:00:14.458Z,949.40
2016-11-09T00:01:07.464Z,949.39
2016-11-09T00:02:08.084Z,949.34
2016-11-09T00:03:07.748Z,949.36
2016-11-09T00:04:08.050Z,949.34
2016-11-09T00:05:08.118Z,949.35
2016-11-09T00:06:07.778Z,949.35
2016-11-09T00:07:07.422Z,949.36
2016-11-09T00:08:08.145Z,949.38
2016-11-09T00:09:07.738Z,949.37
2016-11-09T00:10:07.368Z,949.39
2016-11-09T00:11:08.171Z,949.39
2016-11-09T00:12:07.747Z,949.38
2016-11-09T00:13:07.400Z,949.38
2016-11-09T00:14:08.132Z,949.39
2016-11-09T00:15:07.727Z,949.36
2016-11-09T00:16:08.617Z,949.34
2016-11-09T00:17:08.145Z,949.35
2016-11-09T00:18:07.922Z,949.33
2016-11-09T00:19:07.575Z,949.36
2016-11-09T00:20:07.231Z,949.35
2016-11-09T00:21:07.885Z,949.36
2016-11-09T00:22:07.588Z,949.37
2016-11-09T00:23:08.360Z,949.33
2016-11-09T00:24:07.867Z,949.37
2016-11-09T00:25:07.510Z,949.36
2016-11-09T00:26:07.219Z,949.35
2016-11-09T00:27:07.940Z,949.33
2016-11-09T00:28:07.575Z,949.32
2016-11-09T00:29:07.192Z,949.32
2016-11-09T00:30:09.029Z,949.33
2016-11-09T00:31:07.539Z,949.34
2016-11-09T00:32:07.275Z,949.34
2016-11-09T00:33:07.898Z,949.32
2016-11-09T00:34:07.530Z,949.33
2016-11-09T00:35:07.226Z,949.32
2016-11-09T00:36:07.855Z,949.31
2016-11-09T00:37:07.563Z,949.31
2016-11-09T00:38:08.227Z,949.34
2016-11-09T00:39:07.819Z,949.37
2016-11-09T00:40:07.494Z,949.32
2016-11-09T00:41:08.171Z,949.28
2016-11-09T00:42:07.861Z,949.27
2016-11-09T00:43:07.472Z,949.32
2016-11-09T00:44:08.141Z,949.33
2016-11-09T00:45:07.803Z,949.30
2016-11-09T00:46:07.452Z,949.31
2016-11-09T00:47:08.627Z,949.33
2016-11-09T00:48:07.785Z,949.29
2016-11-09T00:49:07.446Z,949.30
2016-11-09T00:50:08.152Z,949.27
2016-11-09T00:51:07.803Z,949.29
2016-11-09T00:52:07.451Z,949.30
2016-11-09T00:53:08.106Z,949.28
2016-11-09T00:54:07.722Z,949.29
2016-11-09T00:55:07.425Z,949.28
2016-11-09T00:56:08.010Z,949.27
2016-11-09T00:57:07.712Z,949.29
2016-11-09T00:58:07.364Z,949.27
2016-11-09T00:59:08.049Z,949.25
2016-11-09T01:00:07.723Z,949.26
2016-11-09T01:01:07.359Z,949.23
2016-11-09T01:02:08.089Z,949.23
2016-11-09T01:03:07.817Z,949.21
2016-11-09T01:04:07.436Z,949.20
2016-11-09T01:05:08.043Z,949.20
2016-11-09T01:06:07.742Z,949.23
2016-11-09T01:07:07.387Z,949.21
2016-11-09T01:08:08.021Z,949.16
2016-11-09T01:09:07.698Z,949.20
2016-11-09T01:10:07.392Z,949.20
2016-11-09T01:11:08.052Z,949.26
2016-11-09T01:12:07.809Z,949.22
2016-11-09T01:13:07.442Z,949.15
2016-11-09T01:14:08.103Z,949.23
2016-11-09T01:15:07.784Z,949.25
2016-11-09T01:16:07.432Z,949.22
2016-11-09T01:17:08.153Z,949.20
2016-11-09T01:18:07.932Z,949.21
2016-11-09T01:19:07.511Z,949.18
2016-11-09T01:20:08.206Z,949.19
2016-11-09T01:21:07.877Z,949.17
2016-11-09T01:22:07.558Z,949.16
2016-11-09T01:23:08.241Z,949.21
2016-11-09T01:24:07.917Z,949.18
2016-11-09T01:25:07.459Z,949.17
2016-11-09T01:26:08.122Z,949.15
2016-11-09T01:27:07.856Z,949.10
2016-11-09T01:28:07.468Z,949.13
2016-11-09T01:29:08.260Z,949.21
2016-11-09T01:30:07.859Z,949.18
2016-11-09T01:31:07.525Z,949.18
2016-11-09T01:32:08.231Z,949.16
2016-11-09T01:33:07.835Z,949.18
2016-11-09T01:34:07.491Z,949.14
2016-11-09T01:35:08.141Z,949.14
2016-11-09T01:36:07.780Z,949.11
2016-11-09T01:37:07.463Z,949.16
2016-11-09T01:38:08.186Z,949.11
2016-11-09T01:39:07.766Z,949.09
2016-11-09T01:40:07.437Z,949.06
2016-11-09T01:41:08.140Z,949.04
2016-11-09T01:42:07.778Z,949.02
2016-11-09T01:43:07.412Z,949.03
2016-11-09T01:44:08.082Z,948.99
2016-11-09T01:45:07.834Z,948.98
2016-11-09T01:46:07.402Z,948.97
2016-11-09T01:47:08.137Z,948.96
2016-11-09T01:48:07.791Z,948.97
2016-11-09T01:49:07.443Z,948.93
2016-11-09T01:50:08.178Z,948.96
2016-11-09T01:51:07.845Z,948.94
2016-11-09T01:52:07.509Z,948.90
2016-11-09T01:53:08.181Z,948.95
2016-11-09T01:54:07.792Z,948.92
2016-11-09T01:55:07.464Z,948.94
2016-11-09T01:56:08.159Z,948.98
2016-11-09T01:57:07.899Z,948.99
2016-11-09T01:58:07.521Z,949.02
2016-11-09T01:59:08.155Z,948.97
2016-11-09T02:00:07.839Z,948.95
2016-11-09T02:01:07.446Z,948.96
2016-11-09T02:02:08.181Z,948.89
2016-11-09T02:03:07.786Z,948.88
2016-11-09T02:04:07.480Z,948.86
2016-11-09T02:05:08.153Z,948.89
2016-11-09T02:06:07.841Z,948.81
2016-11-09T02:07:07.504Z,948.80
2016-11-09T02:08:08.174Z,948.84
2016-11-09T02:09:07.809Z,948.85
2016-11-09T02:10:07.493Z,948.86
2016-11-09T02:11:08.174Z,948.85
2016-11-09T02:12:07.841Z,948.88
2016-11-09T02:13:07.458Z,948.90
2016-11-09T02:14:08.125Z,948.88
2016-11-09T02:15:07.820Z,948.85
2016-11-09T02:16:07.505Z,948.93
2016-11-09T02:17:08.318Z,948.90
2016-11-09T02:18:07.992Z,948.91
2016-11-09T02:19:07.703Z,948.90
2016-11-09T02:20:07.302Z,948.87
2016-11-09T02:21:07.970Z,948.87
2016-11-09T02:22:07.635Z,948.85
2016-11-09T02:23:07.344Z,948.85
2016-11-09T02:24:07.973Z,948.87
2016-11-09T02:25:07.596Z,948.81
2016-11-09T02:26:07.305Z,948.76
2016-11-09T02:27:07.992Z,948.75
2016-11-09T02:28:07.611Z,948.78
2016-11-09T02:29:07.285Z,948.85
2016-11-09T02:30:07.965Z,948.78
2016-11-09T02:31:07.599Z,948.78
2016-11-09T02:32:07.318Z,948.73
2016-11-09T02:33:07.983Z,948.72
2016-11-09T02:34:07.617Z,948.75
2016-11-09T02:35:07.255Z,948.74
2016-11-09T02:36:07.935Z,948.75
2016-11-09T02:37:07.608Z,948.72
2016-11-09T02:38:07.276Z,948.67
2016-11-09T02:39:07.960Z,948.62
2016-11-09T02:40:07.596Z,948.65
2016-11-09T02:41:07.279Z,948.62
2016-11-09T02:42:07.974Z,948.62
2016-11-09T02:43:07.761Z,948.65
2016-11-09T02:44:07.294Z,948.62
2016-11-09T02:45:07.963Z,948.61
2016-11-09T02:46:07.632Z,948.62
2016-11-09T02:47:07.305Z,948.61
2016-11-09T02:48:08.038Z,948.60
2016-11-09T02:49:07.628Z,948.59
2016-11-09T02:50:07.289Z,948.57
2016-11-09T02:51:07.997Z,948.57
2016-11-09T02:52:07.624Z,948.56
2016-11-09T02:53:07.375Z,948.54
2016-11-09T02:54:08.031Z,948.55
2016-11-09T02:55:07.675Z,948.49
2016-11-09T02:56:07.331Z,948.49
2016-11-09T02:57:08.006Z,948.47
2016-11-09T02:58:07.741Z,948.45
2016-11-09T02:59:07.444Z,948.51
2016-11-09T03:00:08.028Z,948.47
2016-11-09T03:01:07.715Z,948.46
2016-11-09T03:02:07.329Z,948.46
2016-11-09T03:03:08.054Z,948.45
2016-11-09T03:04:07.706Z,948.49
2016-11-09T03:05:07.365Z,948.48
2016-11-09T03:06:08.046Z,948.47
2016-11-09T03:07:07.739Z,948.46
2016-11-09T03:08:07.406Z,948.44
2016-11-09T03:09:08.127Z,948.44
2016-11-09T03:10:08.796Z,948.42
2016-11-09T03:11:07.380Z,948.43
2016-11-09T03:12:08.050Z,948.38
2016-11-09T03:13:07.741Z,948.43
2016-11-09T03:14:07.520Z,948.39
2016-11-09T03:15:08.088Z,948.38
2016-11-09T03:16:07.749Z,948.37
2016-11-09T03:17:07.511Z,948.34
2016-11-09T03:18:07.270Z,948.34
2016-11-09T03:19:07.919Z,948.33
2016-11-09T03:20:08.623Z,948.31
2016-11-09T03:21:07.237Z,948.34
2016-11-09T03:22:07.909Z,948.27
2016-11-09T03:23:07.604Z,948.26
2016-11-09T03:24:07.293Z,948.27
2016-11-09T03:25:08.015Z,948.28
2016-11-09T03:26:07.568Z,948.25
2016-11-09T03:27:07.243Z,948.24
2016-11-09T03:28:07.942Z,948.25
2016-11-09T03:29:07.522Z,948.24
2016-11-09T03:30:08.241Z,948.23
2016-11-09T03:31:07.895Z,948.26
2016-11-09T03:32:07.554Z,948.27
2016-11-09T03:33:08.269Z,948.24
2016-11-09T03:34:07.876Z,948.24
2016-11-09T03:35:07.577Z,948.24
2016-11-09T03:36:08.243Z,948.20
2016-11-09T03:37:07.889Z,948.23
2016-11-09T03:38:07.578Z,948.23
2016-11-09T03:39:07.299Z,948.22
2016-11-09T03:40:07.917Z,948.19
2016-11-09T03:41:07.608Z,948.22
2016-11-09T03:42:07.256Z,948.13
2016-11-09T03:43:07.926Z,948.16
2016-11-09T03:44:07.639Z,948.14
2016-11-09T03:45:07.224Z,948.15
2016-11-09T03:46:07.921Z,948.11
2016-11-09T03:47:07.603Z,948.12
2016-11-09T03:48:07.257Z,948.12
2016-11-09T03:49:07.982Z,948.08
2016-11-09T03:50:07.597Z,948.10
2016-11-09T03:51:07.235Z,948.15
2016-11-09T03:52:07.883Z,948.15
2016-11-09T03:53:07.599Z,948.18
2016-11-09T03:54:08.273Z,948.17
2016-11-09T03:55:07.895Z,948.15
2016-11-09T03:56:07.595Z,948.14
2016-11-09T03:57:07.268Z,948.14
2016-11-09T03:58:07.907Z,948.17
2016-11-09T03:59:07.578Z,948.11
2016-11-09T04:00:07.287Z,948.15
2016-11-09T04:01:07.942Z,948.14
2016-11-09T04:02:07.525Z,948.11
2016-11-09T04:03:07.273Z,948.12
2016-11-09T04:04:07.903Z,948.15
2016-11-09T04:05:07.625Z,948.14
2016-11-09T04:06:07.282Z,948.12
2016-11-09T04:07:09.137Z,948.07
2016-11-09T04:08:09.563Z,948.10
2016-11-09T04:09:07.295Z,948.06
2016-11-09T04:10:07.963Z,948.04
2016-11-09T04:11:07.570Z,948.05
2016-11-09T04:12:07.235Z,948.04
2016-11-09T04:13:07.907Z,948.08
2016-11-09T04:14:07.574Z,948.07
2016-11-09T04:15:07.316Z,948.04
2016-11-09T04:16:07.909Z,948.05
2016-11-09T04:17:07.655Z,948.03
2016-11-09T04:18:07.357Z,948.03
2016-11-09T04:19:08.006Z,948.00
2016-11-09T04:20:07.716Z,948.04
2016-11-09T04:21:07.330Z,947.97
2016-11-09T04:22:08.025Z,947.95
2016-11-09T04:23:08.765Z,947.95
2016-11-09T04:24:07.397Z,947.95
2016-11-09T04:25:08.068Z,947.87
2016-11-09T04:26:07.759Z,947.91
2016-11-09T04:27:07.347Z,947.89
2016-11-09T04:28:08.069Z,947.90
2016-11-09T04:29:07.716Z,947.87
2016-11-09T04:30:07.383Z,947.85
2016-11-09T04:31:08.010Z,947.87
2016-11-09T04:32:07.692Z,947.86
2016-11-09T04:33:07.319Z,947.96
2016-11-09T04:34:07.994Z,947.90
2016-11-09T04:35:07.711Z,947.89
2016-11-09T04:36:07.338Z,947.90
2016-11-09T04:37:07.997Z,947.91
2016-11-09T04:38:07.683Z,947.88
2016-11-09T04:39:07.379Z,947.83
2016-11-09T04:40:08.060Z,947.90
2016-11-09T04:41:07.709Z,947.84
2016-11-09T04:42:07.367Z,947.86
2016-11-09T04:43:08.027Z,947.86
2016-11-09T04:44:07.693Z,947.87
2016-11-09T04:45:07.420Z,947.86
2016-11-09T04:46:08.061Z,947.81
2016-11-09T04:47:07.886Z,947.78
2016-11-09T04:48:07.487Z,947.84
2016-11-09T04:49:08.118Z,947.84
2016-11-09T04:50:07.855Z,947.81
2016-11-09T04:51:07.429Z,947.82
2016-11-09T04:52:08.083Z,947.78
2016-11-09T04:53:07.732Z,947.78
2016-11-09T04:54:07.421Z,947.76
2016-11-09T04:55:08.079Z,947.81
2016-11-09T04:56:07.770Z,947.79
2016-11-09T04:57:07.429Z,947.80
2016-11-09T04:58:08.071Z,947.76
2016-11-09T04:59:07.778Z,947.75
2016-11-09T05:00:07.512Z,947.77
2016-11-09T05:01:08.101Z,947.74
2016-11-09T05:02:07.790Z,947.75
2016-11-09T05:03:07.446Z,947.72
2016-11-09T05:04:08.122Z,947.71
2016-11-09T05:05:07.828Z,947.71
2016-11-09T05:06:07.454Z,947.68
2016-11-09T05:07:08.102Z,947.63
2016-11-09T05:08:07.764Z,947.62
2016-11-09T05:09:07.437Z,947.60
2016-11-09T05:10:08.194Z,947.56
2016-11-09T05:11:08.505Z,947.56
2016-11-09T05:12:07.518Z,947.53
2016-11-09T05:13:08.639Z,947.57
2016-11-09T05:14:07.283Z,947.62
2016-11-09T05:15:07.981Z,947.49
2016-11-09T05:16:07.577Z,947.50
2016-11-09T05:17:07.333Z,947.50
2016-11-09T05:18:08.054Z,947.49
2016-11-09T05:19:07.730Z,947.49
2016-11-09T05:20:07.464Z,947.49
2016-11-09T05:21:08.052Z,947.48
2016-11-09T05:22:07.742Z,947.46
2016-11-09T05:23:07.421Z,947.46
2016-11-09T05:24:08.078Z,947.48
2016-11-09T05:25:10.248Z,947.45
2016-11-09T05:26:08.074Z,947.46
2016-11-09T05:27:07.778Z,947.46
2016-11-09T05:28:07.435Z,947.41
2016-11-09T05:29:08.069Z,947.40
2016-11-09T05:30:07.737Z,947.49
2016-11-09T05:31:07.430Z,947.40
2016-11-09T05:32:08.102Z,947.36
2016-11-09T05:33:07.740Z,947.35
2016-11-09T05:34:07.409Z,947.33
2016-11-09T05:35:08.039Z,947.34
2016-11-09T05:36:07.778Z,947.32
2016-11-09T05:37:07.399Z,947.35
2016-11-09T05:38:08.110Z,947.33
2016-11-09T05:39:07.750Z,947.31
2016-11-09T05:40:07.397Z,947.31
2016-11-09T05:41:08.128Z,947.32
2016-11-09T05:42:07.756Z,947.28
2016-11-09T05:43:07.459Z,947.33
2016-11-09T05:44:08.088Z,947.35
2016-11-09T05:45:07.760Z,947.27
2016-11-09T05:46:07.460Z,947.25
2016-11-09T05:47:08.108Z,947.29
2016-11-09T05:48:07.746Z,947.25
2016-11-09T05:49:07.416Z,947.18
2016-11-09T05:50:08.102Z,947.23
2016-11-09T05:51:07.765Z,947.22
2016-11-09T05:52:07.419Z,947.25
2016-11-09T05:53:08.134Z,947.22
2016-11-09T05:54:07.742Z,947.21
2016-11-09T05:55:07.417Z,947.22
2016-11-09T05:56:08.133Z,947.20
2016-11-09T05:57:07.752Z,947.18
2016-11-09T05:58:07.505Z,947.16
2016-11-09T05:59:08.038Z,947.14
2016-11-09T06:00:07.753Z,947.17
2016-11-09T06:01:07.392Z,947.14
2016-11-09T06:02:08.015Z,947.14
2016-11-09T06:03:07.695Z,947.17
2016-11-09T06:04:07.384Z,947.19
2016-11-09T06:05:08.079Z,947.18
2016-11-09T06:06:07.772Z,947.18
2016-11-09T06:07:07.385Z,947.12
2016-11-09T06:08:08.109Z,947.13
2016-11-09T06:09:07.740Z,947.11
2016-11-09T06:10:07.376Z,947.12
2016-11-09T06:11:08.124Z,947.09
2016-11-09T06:12:07.739Z,947.08
2016-11-09T06:13:07.470Z,947.07
2016-11-09T06:14:08.096Z,947.08
2016-11-09T06:15:07.809Z,947.10
2016-11-09T06:16:07.490Z,947.11
2016-11-09T06:17:08.198Z,947.12
2016-11-09T06:18:07.992Z,947.07
2016-11-09T06:19:07.664Z,947.08
2016-11-09T06:20:07.350Z,947.02
2016-11-09T06:21:08.072Z,947.05
2016-11-09T06:22:07.670Z,947.04
2016-11-09T06:23:07.349Z,947.04
2016-11-09T06:24:07.998Z,947.03
2016-11-09T06:25:07.703Z,947.03
2016-11-09T06:26:07.358Z,947.00
2016-11-09T06:27:07.957Z,947.01
2016-11-09T06:28:07.648Z,947.01
2016-11-09T06:29:07.373Z,947.02
2016-11-09T06:30:07.965Z,947.00
2016-11-09T06:31:14.166Z,947.02
2016-11-09T06:32:07.257Z,946.99
2016-11-09T06:33:07.920Z,947.03
2016-11-09T06:34:07.573Z,946.99
2016-11-09T06:35:07.315Z,946.99
2016-11-09T06:36:07.957Z,947.00
2016-11-09T06:37:07.588Z,947.00
2016-11-09T06:38:07.270Z,947.02
2016-11-09T06:39:07.935Z,947.02
2016-11-09T06:40:07.578Z,947.02
2016-11-09T06:41:07.365Z,947.00
2016-11-09T06:42:07.883Z,946.95
2016-11-09T06:43:07.545Z,946.96
2016-11-09T06:44:07.245Z,946.98
2016-11-09T06:45:07.928Z,946.95
2016-11-09T06:46:07.629Z,946.95
2016-11-09T06:47:07.263Z,946.99
2016-11-09T06:48:07.924Z,946.96
2016-11-09T06:49:07.621Z,947.00
2016-11-09T06:50:07.290Z,946.96
2016-11-09T06:51:08.000Z,946.96
2016-11-09T06:52:07.634Z,946.92
2016-11-09T06:53:07.295Z,946.91
2016-11-09T06:54:07.930Z,946.94
2016-11-09T06:55:07.609Z,946.98
2016-11-09T06:56:07.359Z,946.93
2016-11-09T06:57:07.964Z,946.95
2016-11-09T06:58:07.651Z,946.94
2016-11-09T06:59:07.305Z,946.91
2016-11-09T07:00:07.977Z,946.95
2016-11-09T07:01:07.669Z,946.95
2016-11-09T07:02:07.277Z,946.96
2016-11-09T07:03:07.956Z,946.93
2016-11-09T07:04:07.604Z,946.95
2016-11-09T07:05:07.318Z,946.93
2016-11-09T07:06:07.970Z,946.95
2016-11-09T07:07:07.686Z,946.93
2016-11-09T07:08:07.281Z,946.91
2016-11-09T07:09:07.938Z,946.97
2016-11-09T07:10:07.563Z,946.85
2016-11-09T07:11:07.269Z,946.91
2016-11-09T07:12:07.934Z,946.93
2016-11-09T07:13:07.619Z,946.92
2016-11-09T07:14:07.234Z,946.91
2016-11-09T07:15:07.903Z,946.86
2016-11-09T07:16:07.570Z,946.83
2016-11-09T07:17:07.271Z,946.79
2016-11-09T07:18:08.073Z,946.83
2016-11-09T07:19:07.703Z,946.84
2016-11-09T07:20:07.393Z,946.80
2016-11-09T07:21:08.104Z,946.75
2016-11-09T07:22:07.723Z,946.81
2016-11-09T07:23:07.408Z,946.79
2016-11-09T07:24:08.122Z,946.78
2016-11-09T07:25:07.772Z,946.79
2016-11-09T07:26:07.429Z,946.77
2016-11-09T07:27:08.030Z,946.70
2016-11-09T07:28:07.719Z,946.72
2016-11-09T07:29:07.391Z,946.71
2016-11-09T07:30:07.993Z,946.69
2016-11-09T07:31:07.715Z,946.67
2016-11-09T07:32:07.346Z,946.65
2016-11-09T07:33:07.981Z,946.67
2016-11-09T07:34:07.701Z,946.65
2016-11-09T07:35:07.341Z,946.62
2016-11-09T07:36:08.051Z,946.58
2016-11-09T07:37:07.697Z,946.58
2016-11-09T07:38:07.363Z,946.61
2016-11-09T07:39:08.031Z,946.59
2016-11-09T07:40:07.692Z,946.56
2016-11-09T07:41:07.420Z,946.58
2016-11-09T07:42:08.094Z,946.55
2016-11-09T07:43:07.747Z,946.58
2016-11-09T07:44:07.402Z,946.60
2016-11-09T07:45:09.232Z,946.60
2016-11-09T07:46:23.955Z,946.56
2016-11-09T07:47:20.319Z,946.57
2016-11-09T07:48:07.313Z,946.55
2016-11-09T07:49:08.128Z,946.51
2016-11-09T07:50:07.756Z,946.52
2016-11-09T07:51:07.452Z,946.48
2016-11-09T07:52:08.367Z,946.48
2016-11-09T07:53:07.784Z,946.48
2016-11-09T07:54:07.555Z,946.45
2016-11-09T07:55:08.100Z,946.47
2016-11-09T07:56:07.837Z,946.42
2016-11-09T07:57:07.456Z,946.49
2016-11-09T07:58:08.115Z,946.50
2016-11-09T07:59:07.769Z,946.45
2016-11-09T08:00:07.527Z,946.45
2016-11-09T08:01:08.172Z,946.47
2016-11-09T08:02:07.825Z,946.45
2016-11-09T08:03:07.430Z,946.40
2016-11-09T08:04:08.101Z,946.42
2016-11-09T08:05:07.735Z,946.42
2016-11-09T08:06:07.419Z,946.41
2016-11-09T08:07:08.386Z,946.43
2016-11-09T08:08:07.840Z,946.39
2016-11-09T08:09:07.452Z,946.41
2016-11-09T08:10:08.143Z,946.34
2016-11-09T08:11:07.856Z,946.35
2016-11-09T08:12:07.450Z,946.35
2016-11-09T08:13:08.188Z,946.34
2016-11-09T08:14:07.824Z,946.37
2016-11-09T08:15:07.570Z,946.34
2016-11-09T08:16:09.614Z,946.32
2016-11-09T08:17:07.958Z,946.35
2016-11-09T08:18:07.710Z,946.31
2016-11-09T08:19:07.361Z,946.32
2016-11-09T08:20:07.998Z,946.27
2016-11-09T08:21:07.673Z,946.27
2016-11-09T08:22:07.385Z,946.30
2016-11-09T08:23:09.331Z,946.28
2016-11-09T08:24:07.696Z,946.24
2016-11-09T08:25:07.348Z,946.29
2016-11-09T08:26:07.990Z,946.22
2016-11-09T08:27:07.632Z,946.20
2016-11-09T08:28:07.306Z,946.21
2016-11-09T08:29:14.679Z,946.20
2016-11-09T08:30:07.654Z,946.22
2016-11-09T08:31:07.263Z,946.20
2016-11-09T08:32:08.005Z,946.18
2016-11-09T08:33:07.586Z,946.23
2016-11-09T08:34:07.277Z,946.17
2016-11-09T08:35:07.997Z,946.22
2016-11-09T08:36:07.650Z,946.25
2016-11-09T08:37:07.309Z,946.21
2016-11-09T08:38:07.898Z,946.21
2016-11-09T08:39:07.548Z,946.18
2016-11-09T08:40:07.276Z,946.17
2016-11-09T08:41:07.989Z,946.19
2016-11-09T08:42:14.391Z,946.17
2016-11-09T08:43:09.353Z,946.15
2016-11-09T08:44:07.966Z,946.10
2016-11-09T08:45:07.659Z,946.21
2016-11-09T08:46:07.309Z,946.13
2016-11-09T08:47:14.113Z,946.13
2016-11-09T08:48:07.602Z,946.11
2016-11-09T08:49:07.244Z,946.06
2016-11-09T08:50:07.928Z,946.07
2016-11-09T08:51:08.062Z,946.08
2016-11-09T08:52:08.245Z,946.05
2016-11-09T08:53:07.960Z,946.06
2016-11-09T08:54:07.582Z,946.03
2016-11-09T08:55:08.199Z,946.06
2016-11-09T08:56:07.992Z,946.05
2016-11-09T08:57:14.539Z,946.06
2016-11-09T08:58:08.301Z,946.06
2016-11-09T08:59:07.864Z,946.05
2016-11-09T09:00:07.523Z,946.00
2016-11-09T09:01:08.175Z,946.00
2016-11-09T09:02:07.933Z,945.99
2016-11-09T09:03:07.548Z,946.01
2016-11-09T09:04:08.168Z,945.99
2016-11-09T09:05:08.965Z,946.00
2016-11-09T09:06:08.585Z,945.99
2016-11-09T09:07:08.196Z,945.98
2016-11-09T09:08:07.885Z,946.01
2016-11-09T09:09:13.175Z,945.99
2016-11-09T09:10:08.137Z,946.00
2016-11-09T09:11:14.431Z,945.98
2016-11-09T09:12:07.479Z,945.98
2016-11-09T09:13:08.140Z,945.97
2016-11-09T09:14:07.864Z,945.96
2016-11-09T09:15:08.566Z,945.97
2016-11-09T09:16:08.209Z,945.97
2016-11-09T09:17:07.943Z,945.97
2016-11-09T09:18:07.758Z,945.91
2016-11-09T09:19:07.337Z,945.97
2016-11-09T09:20:08.077Z,945.98
2016-11-09T09:21:09.147Z,945.96
2016-11-09T09:22:07.375Z,945.98
2016-11-09T09:23:08.173Z,945.95
2016-11-09T09:24:07.786Z,945.93
2016-11-09T09:25:07.490Z,945.92
2016-11-09T09:26:08.128Z,945.95
2016-11-09T09:27:07.752Z,945.94
2016-11-09T09:28:07.436Z,945.93
2016-11-09T09:29:08.544Z,945.91
2016-11-09T09:30:07.782Z,945.98
2016-11-09T09:31:07.438Z,945.93
2016-11-09T09:32:08.055Z,945.89
2016-11-09T09:33:07.750Z,945.91
2016-11-09T09:34:07.397Z,945.88
2016-11-09T09:35:08.139Z,945.88
2016-11-09T09:36:07.848Z,945.88
2016-11-09T09:37:07.540Z,945.90
2016-11-09T09:38:08.171Z,945.92
2016-11-09T09:39:07.780Z,945.92
2016-11-09T09:40:07.465Z,945.93
2016-11-09T09:41:08.188Z,945.94
2016-11-09T09:42:07.780Z,945.92
2016-11-09T09:43:07.496Z,945.96
2016-11-09T09:44:08.149Z,945.93
2016-11-09T09:45:07.908Z,945.99
2016-11-09T09:46:07.523Z,945.95
2016-11-09T09:47:08.292Z,945.90
2016-11-09T09:48:07.909Z,945.91
2016-11-09T09:49:07.537Z,945.89
2016-11-09T09:50:08.269Z,945.92
2016-11-09T09:51:07.935Z,945.87
2016-11-09T09:52:07.569Z,945.86
2016-11-09T09:53:08.268Z,945.87
2016-11-09T09:54:14.767Z,945.82
2016-11-09T09:55:07.544Z,945.85
2016-11-09T09:56:08.283Z,945.78
2016-11-09T09:57:07.910Z,945.74
2016-11-09T09:58:07.619Z,945.79
2016-11-09T09:59:08.250Z,945.81
2016-11-09T10:00:07.928Z,945.73
2016-11-09T10:01:07.689Z,945.74
2016-11-09T10:02:07.308Z,945.71
2016-11-09T10:03:08.062Z,945.71
2016-11-09T10:04:07.617Z,945.67
2016-11-09T10:05:07.248Z,945.67
2016-11-09T10:06:08.029Z,945.69
2016-11-09T10:07:07.642Z,945.66
2016-11-09T10:08:07.302Z,945.61
2016-11-09T10:09:08.576Z,945.64
2016-11-09T10:10:08.290Z,945.57
2016-11-09T10:11:07.332Z,945.59
2016-11-09T10:12:08.016Z,945.57
2016-11-09T10:13:07.628Z,945.58
2016-11-09T10:14:07.292Z,945.54
2016-11-09T10:15:07.928Z,945.51
2016-11-09T10:16:07.572Z,945.46
2016-11-09T10:17:07.436Z,945.47
2016-11-09T10:18:08.626Z,945.43
2016-11-09T10:19:07.802Z,945.40
2016-11-09T10:20:07.467Z,945.44
2016-11-09T10:21:08.106Z,945.38
2016-11-09T10:22:07.752Z,945.41
2016-11-09T10:23:07.439Z,945.40
2016-11-09T10:24:08.097Z,945.38
2016-11-09T10:25:08.323Z,945.40
2016-11-09T10:26:07.444Z,945.32
2016-11-09T10:27:08.192Z,945.33
2016-11-09T10:28:08.986Z,945.34
2016-11-09T10:29:07.530Z,945.32
2016-11-09T10:30:08.123Z,945.26
2016-11-09T10:31:07.887Z,945.26
2016-11-09T10:32:07.598Z,945.25
2016-11-09T10:33:08.237Z,945.22
2016-11-09T10:34:07.890Z,945.20
2016-11-09T10:35:13.652Z,945.16
2016-11-09T10:36:08.210Z,945.17
2016-11-09T10:37:07.840Z,945.12
2016-11-09T10:38:14.028Z,945.16
2016-11-09T10:39:08.202Z,945.11
2016-11-09T10:40:07.822Z,945.16
2016-11-09T10:41:07.511Z,945.12
2016-11-09T10:42:08.171Z,945.11
2016-11-09T10:43:07.867Z,945.11
2016-11-09T10:44:07.491Z,945.11
2016-11-09T10:45:08.203Z,945.12
2016-11-09T10:46:07.883Z,945.13
2016-11-09T10:47:07.563Z,945.07
2016-11-09T10:48:08.208Z,945.08
2016-11-09T10:49:07.926Z,945.05
2016-11-09T10:50:07.485Z,945.05
2016-11-09T10:51:08.195Z,945.05
2016-11-09T10:52:07.854Z,945.01
2016-11-09T10:53:07.524Z,945.04
2016-11-09T10:54:08.259Z,945.02
2016-11-09T10:55:07.873Z,944.98
2016-11-09T10:56:07.499Z,945.04
2016-11-09T10:57:08.237Z,945.00
2016-11-09T10:58:07.854Z,945.01
2016-11-09T10:59:07.524Z,944.95
2016-11-09T11:00:08.242Z,945.05
2016-11-09T11:01:07.818Z,945.02
2016-11-09T11:02:07.457Z,944.97
2016-11-09T11:03:08.606Z,945.03
2016-11-09T11:04:07.875Z,944.97
2016-11-09T11:05:08.230Z,944.98
2016-11-09T11:06:14.891Z,944.92
2016-11-09T11:07:07.956Z,944.92
2016-11-09T11:08:07.589Z,944.89
2016-11-09T11:09:14.747Z,944.88
2016-11-09T11:10:07.930Z,944.85
2016-11-09T11:11:07.580Z,944.84
2016-11-09T11:12:08.246Z,944.89
2016-11-09T11:13:14.403Z,944.84
2016-11-09T11:14:07.555Z,944.84
2016-11-09T11:15:08.243Z,944.82
2016-11-09T11:16:07.941Z,944.82
2016-11-09T11:17:07.681Z,944.80
2016-11-09T11:18:07.442Z,944.81
2016-11-09T11:19:08.062Z,944.85
2016-11-09T11:20:07.704Z,944.80
2016-11-09T11:21:07.377Z,944.79
2016-11-09T11:22:14.789Z,944.81
2016-11-09T11:23:07.778Z,944.79
2016-11-09T11:24:07.469Z,944.77
2016-11-09T11:25:08.151Z,944.75
2016-11-09T11:26:07.804Z,944.76
2016-11-09T11:27:07.545Z,944.74
2016-11-09T11:28:08.070Z,944.74
2016-11-09T11:29:07.731Z,944.70
2016-11-09T11:30:07.496Z,944.69
2016-11-09T11:31:08.103Z,944.66
2016-11-09T11:32:07.736Z,944.66
2016-11-09T11:33:07.407Z,944.63
2016-11-09T11:34:08.130Z,944.64
2016-11-09T11:35:07.835Z,944.61
2016-11-09T11:36:07.454Z,944.62
2016-11-09T11:37:08.108Z,944.65
2016-11-09T11:38:07.828Z,944.60
2016-11-09T11:39:10.536Z,944.55
2016-11-09T11:40:08.224Z,944.57
2016-11-09T11:41:07.803Z,944.61
2016-11-09T11:42:07.497Z,944.54
2016-11-09T11:43:08.102Z,944.50
2016-11-09T11:44:07.788Z,944.53
2016-11-09T11:45:07.462Z,944.46
2016-11-09T11:46:08.119Z,944.42
2016-11-09T11:47:07.841Z,944.47
2016-11-09T11:48:07.533Z,944.42
2016-11-09T11:49:08.182Z,944.45
2016-11-09T11:50:07.828Z,944.42
2016-11-09T11:51:07.457Z,944.41
2016-11-09T11:52:08.209Z,944.33
2016-11-09T11:53:07.801Z,944.36
2016-11-09T11:54:07.490Z,944.35
2016-11-09T11:55:08.204Z,944.33
2016-11-09T11:56:07.839Z,944.35
2016-11-09T11:57:07.613Z,944.30
2016-11-09T11:58:08.220Z,944.33
2016-11-09T11:59:07.874Z,944.33
2016-11-09T12:00:07.600Z,944.35
2016-11-09T12:01:08.218Z,944.26
2016-11-09T12:02:07.908Z,944.26
2016-11-09T12:03:07.520Z,944.27
2016-11-09T12:04:08.248Z,944.25
2016-11-09T12:05:07.853Z,944.22
2016-11-09T12:06:07.539Z,944.23
2016-11-09T12:07:08.221Z,944.19
2016-11-09T12:08:07.917Z,944.21
2016-11-09T12:09:07.509Z,944.24
2016-11-09T12:10:08.196Z,944.17
2016-11-09T12:11:07.837Z,944.18
2016-11-09T12:12:07.532Z,944.17
2016-11-09T12:13:08.164Z,944.14
2016-11-09T12:14:07.857Z,944.13
2016-11-09T12:15:07.606Z,944.14
2016-11-09T12:16:08.197Z,944.07
2016-11-09T12:17:08.044Z,944.08
2016-11-09T12:18:07.756Z,944.14
2016-11-09T12:19:07.373Z,944.09
2016-11-09T12:20:08.091Z,944.07
2016-11-09T12:21:07.725Z,944.03
2016-11-09T12:22:07.434Z,944.05
2016-11-09T12:23:08.127Z,944.00
2016-11-09T12:24:08.806Z,943.99
2016-11-09T12:25:07.448Z,943.99
2016-11-09T12:26:08.075Z,943.95
2016-11-09T12:27:07.734Z,943.91
2016-11-09T12:28:07.363Z,943.97